sensor_id;sensor_type;location;lat;lon;timestamp;pressure;altitude;pressure_sealevel;temperature;humidity
51043;BME280;37078;45.806;9.084;2022-09-25T00:01:19;98944.66;;;23.19;46.79
51043;BME280;37078;45.806;9.084;2022-09-25T00:03:45;98959.41;;;23.26;46.85
51043;BME280;37078;45.806;9.084;2022-09-25T00:06:13;98948.53;;;23.26;46.62
51043;BME280;37078;45.806;9.084;2022-09-25T00:08:39;98948.22;;;23.28;46.86
51043;BME280;37078;45.806;9.084;2022-09-25T00:11:11;98946.31;;;23.28;46.94
51043;BME280;37078;45.806;9.084;2022-09-25T00:13:37;98946.31;;;23.28;46.87
51043;BME280;37078;45.806;9.084;2022-09-25T00:16:03;98949.03;;;23.28;46.96
51043;BME280;37078;45.806;9.084;2022-09-25T00:18:29;98941.50;;;23.25;46.81
51043;BME280;37078;45.806;9.084;2022-09-25T00:21:15;98935.75;;;23.27;47.01
51043;BME280;37078;45.806;9.084;2022-09-25T00:23:41;98928.38;;;23.27;46.77
51043;BME280;37078;45.806;9.084;2022-09-25T00:26:10;98933.03;;;23.27;47.09
51043;BME280;37078;45.806;9.084;2022-09-25T00:28:36;98934.94;;;23.26;47.13
51043;BME280;37078;45.806;9.084;2022-09-25T00:31:03;98923.09;;;23.22;47.03
51043;BME280;37078;45.806;9.084;2022-09-25T00:33:30;98928.38;;;23.27;47.27
51043;BME280;37078;45.806;9.084;2022-09-25T00:36:03;98916.72;;;23.27;47.26
51043;BME280;37078;45.806;9.084;2022-09-25T00:38:30;98913.50;;;23.25;47.69
51043;BME280;37078;45.806;9.084;2022-09-25T00:40:56;98920.22;;;23.27;47.51
51043;BME280;37078;45.806;9.084;2022-09-25T00:46:08;98911.28;;;23.27;47.87
51043;BME280;37078;45.806;9.084;2022-09-25T00:48:36;98904.06;;;23.22;47.88
51043;BME280;37078;45.806;9.084;2022-09-25T00:51:04;98911.88;;;23.24;47.75
51043;BME280;37078;45.806;9.084;2022-09-25T00:53:35;98911.28;;;23.27;47.96
51043;BME280;37078;45.806;9.084;2022-09-25T00:56:03;98903.72;;;23.24;48.04
51043;BME280;37078;45.806;9.084;2022-09-25T00:58:30;98896.38;;;23.24;48.36
51043;BME280;37078;45.806;9.084;2022-09-25T01:00:57;98888.22;;;23.24;48.55
51043;BME280;37078;45.806;9.084;2022-09-25T01:03:23;98888.53;;;23.23;48.53
51043;BME280;37078;45.806;9.084;2022-09-25T01:05:50;98877.84;;;23.26;48.62
51043;BME280;37078;45.806;9.084;2022-09-25T01:08:21;98884.06;;;23.27;48.51
51043;BME280;37078;45.806;9.084;2022-09-25T01:10:47;98879.44;;;23.27;48.66
51043;BME280;37078;45.806;9.084;2022-09-25T01:13:13;98869.19;;;23.24;48.88
51043;BME280;37078;45.806;9.084;2022-09-25T01:16:10;98862.13;;;23.23;48.64
51043;BME280;37078;45.806;9.084;2022-09-25T01:21:36;98868.09;;;23.25;48.73
51043;BME280;37078;45.806;9.084;2022-09-25T01:32:14;98856.41;;;23.25;48.76
51043;BME280;37078;45.806;9.084;2022-09-25T01:35:01;98850.66;;;23.26;48.78
51043;BME280;37078;45.806;9.084;2022-09-25T01:37:37;98854.47;;;23.25;48.70
51043;BME280;37078;45.806;9.084;2022-09-25T01:42:54;98848.25;;;23.25;48.46
51043;BME280;37078;45.806;9.084;2022-09-25T01:45:29;98850.66;;;23.26;48.75
51043;BME280;37078;45.806;9.084;2022-09-25T01:47:58;98850.66;;;23.26;48.67
51043;BME280;37078;45.806;9.084;2022-09-25T01:50:35;98853.38;;;23.26;48.49
51043;BME280;37078;45.806;9.084;2022-09-25T01:53:07;98845.19;;;23.26;48.55
51043;BME280;37078;45.806;9.084;2022-09-25T01:55:40;98835.75;;;23.24;48.47
51043;BME280;37078;45.806;9.084;2022-09-25T01:58:12;98832.41;;;23.27;48.51
51043;BME280;37078;45.806;9.084;2022-09-25T02:00:40;98826.50;;;23.25;48.51
51043;BME280;37078;45.806;9.084;2022-09-25T02:03:15;98829.69;;;23.27;48.39
51043;BME280;37078;45.806;9.084;2022-09-25T02:05:47;98822.94;;;23.24;48.51
51043;BME280;37078;45.806;9.084;2022-09-25T02:08:33;98814.63;;;23.21;48.30
51043;BME280;37078;45.806;9.084;2022-09-25T02:11:02;98822.66;;;23.26;48.48
51043;BME280;37078;45.806;9.084;2022-09-25T02:16:08;98803.13;;;23.24;48.34
51043;BME280;37078;45.806;9.084;2022-09-25T02:18:36;98799.31;;;23.25;48.52
51043;BME280;37078;45.806;9.084;2022-09-25T02:21:41;98796.59;;;23.25;48.38
51043;BME280;37078;45.806;9.084;2022-09-25T02:24:26;98795.28;;;23.22;48.69
51043;BME280;37078;45.806;9.084;2022-09-25T02:26:55;98796.59;;;23.25;48.70
51043;BME280;37078;45.806;9.084;2022-09-25T02:29:20;98782.63;;;23.18;48.63
51043;BME280;37078;45.806;9.084;2022-09-25T02:31:53;98789.50;;;23.24;48.81
51043;BME280;37078;45.806;9.084;2022-09-25T02:34:20;98796.88;;;23.23;48.69
51043;BME280;37078;45.806;9.084;2022-09-25T02:36:46;98794.47;;;23.22;48.88
51043;BME280;37078;45.806;9.084;2022-09-25T02:39:14;98779.91;;;23.18;48.72
51043;BME280;37078;45.806;9.084;2022-09-25T02:42:07;98770.47;;;23.24;48.77
51043;BME280;37078;45.806;9.084;2022-09-25T02:47:38;98780.56;;;23.23;48.96
51043;BME280;37078;45.806;9.084;2022-09-25T02:50:17;98767.44;;;23.17;49.02
51043;BME280;37078;45.806;9.084;2022-09-25T02:53:00;98775.91;;;23.24;48.89
51043;BME280;37078;45.806;9.084;2022-09-25T02:55:47;98758.00;;;23.23;49.12
51043;BME280;37078;45.806;9.084;2022-09-25T02:58:29;98745.38;;;23.18;48.98
51043;BME280;37078;45.806;9.084;2022-09-25T03:00:59;98754.16;;;23.24;48.90
51043;BME280;37078;45.806;9.084;2022-09-25T03:03:26;98751.78;;;23.22;49.02
51043;BME280;37078;45.806;9.084;2022-09-25T03:05:55;98745.06;;;23.20;49.05
51043;BME280;37078;45.806;9.084;2022-09-25T03:08:21;98758.00;;;23.23;48.87
51043;BME280;37078;45.806;9.084;2022-09-25T03:11:09;98753.69;;;23.22;48.95
51043;BME280;37078;45.806;9.084;2022-09-25T03:13:36;98754.50;;;23.22;48.97
51043;BME280;37078;45.806;9.084;2022-09-25T03:16:12;98756.41;;;23.22;48.88
51043;BME280;37078;45.806;9.084;2022-09-25T03:18:40;98753.06;;;23.16;48.97
51043;BME280;37078;45.806;9.084;2022-09-25T03:21:05;98750.66;;;23.15;48.91
51043;BME280;37078;45.806;9.084;2022-09-25T03:23:31;98762.66;;;23.22;49.01
51043;BME280;37078;45.806;9.084;2022-09-25T03:25:57;98758.66;;;23.20;48.78
51043;BME280;37078;45.806;9.084;2022-09-25T03:28:23;98752.56;;;23.23;48.95
51043;BME280;37078;45.806;9.084;2022-09-25T03:33:21;98757.22;;;23.22;48.82
51043;BME280;37078;45.806;9.084;2022-09-25T03:35:46;98759.59;;;23.24;48.84
51043;BME280;37078;45.806;9.084;2022-09-25T03:38:11;98762.31;;;23.24;48.80
51043;BME280;37078;45.806;9.084;2022-09-25T03:40:37;98763.94;;;23.25;48.95
51043;BME280;37078;45.806;9.084;2022-09-25T03:43:02;98761.38;;;23.20;48.80
51043;BME280;37078;45.806;9.084;2022-09-25T03:45:28;98759.59;;;23.24;48.81
51043;BME280;37078;45.806;9.084;2022-09-25T03:47:53;98763.44;;;23.23;48.97
51043;BME280;37078;45.806;9.084;2022-09-25T03:50:19;98756.75;;;23.20;48.92
51043;BME280;37078;45.806;9.084;2022-09-25T03:52:44;98748.72;;;23.15;48.81
51043;BME280;37078;45.806;9.084;2022-09-25T03:55:09;98757.03;;;23.19;48.78
51043;BME280;37078;45.806;9.084;2022-09-25T03:57:36;98762.31;;;23.24;48.96
51043;BME280;37078;45.806;9.084;2022-09-25T04:00:03;98754.50;;;23.22;48.87
51043;BME280;37078;45.806;9.084;2022-09-25T04:02:28;98754.97;;;23.24;48.87
51043;BME280;37078;45.806;9.084;2022-09-25T04:04:54;98754.97;;;23.24;49.12
51043;BME280;37078;45.806;9.084;2022-09-25T04:07:21;98759.59;;;23.24;49.02
51043;BME280;37078;45.806;9.084;2022-09-25T04:09:46;98750.50;;;23.20;49.22
51043;BME280;37078;45.806;9.084;2022-09-25T04:12:12;98753.22;;;23.20;49.03
51043;BME280;37078;45.806;9.084;2022-09-25T04:14:37;98761.22;;;23.25;49.10
51043;BME280;37078;45.806;9.084;2022-09-25T04:17:03;98756.88;;;23.24;49.15
51043;BME280;37078;45.806;9.084;2022-09-25T04:19:29;98758.50;;;23.25;48.86
51043;BME280;37078;45.806;9.084;2022-09-25T04:21:55;98751.78;;;23.22;49.15
51043;BME280;37078;45.806;9.084;2022-09-25T04:24:20;98762.66;;;23.22;49.14
51043;BME280;37078;45.806;9.084;2022-09-25T04:27:04;98770.00;;;23.22;49.12
51043;BME280;37078;45.806;9.084;2022-09-25T04:29:29;98765.38;;;23.22;49.00
51043;BME280;37078;45.806;9.084;2022-09-25T04:31:56;98768.09;;;23.22;49.01
51043;BME280;37078;45.806;9.084;2022-09-25T04:34:40;98770.00;;;23.22;48.99
51043;BME280;37078;45.806;9.084;2022-09-25T04:37:06;98767.28;;;23.22;48.85
51043;BME280;37078;45.806;9.084;2022-09-25T04:39:31;98749.53;;;23.16;49.07
51043;BME280;37078;45.806;9.084;2022-09-25T04:41:56;98755.63;;;23.21;49.02
51043;BME280;37078;45.806;9.084;2022-09-25T04:44:22;98739.59;;;23.11;49.45
51043;BME280;37078;45.806;9.084;2022-09-25T04:46:47;98757.53;;;23.21;49.03
51043;BME280;37078;45.806;9.084;2022-09-25T04:49:13;98761.06;;;23.21;48.97
51043;BME280;37078;45.806;9.084;2022-09-25T04:51:38;98770.00;;;23.22;49.20
51043;BME280;37078;45.806;9.084;2022-09-25T04:54:03;98755.94;;;23.20;49.00
51043;BME280;37078;45.806;9.084;2022-09-25T04:56:29;98754.81;;;23.21;49.04
51043;BME280;37078;45.806;9.084;2022-09-25T04:58:54;98746.81;;;23.16;49.07
51043;BME280;37078;45.806;9.084;2022-09-25T05:01:20;98747.63;;;23.16;49.05
51043;BME280;37078;45.806;9.084;2022-09-25T05:03:50;98745.06;;;23.20;48.96
51043;BME280;37078;45.806;9.084;2022-09-25T05:06:18;98749.72;;;23.19;48.97
51043;BME280;37078;45.806;9.084;2022-09-25T05:08:43;98745.06;;;23.20;49.09
51043;BME280;37078;45.806;9.084;2022-09-25T05:11:08;98739.28;;;23.13;49.03
51043;BME280;37078;45.806;9.084;2022-09-25T05:13:34;98750.50;;;23.20;48.89
51043;BME280;37078;45.806;9.084;2022-09-25T05:15:59;98741.22;;;23.21;49.13
51043;BME280;37078;45.806;9.084;2022-09-25T05:18:25;98737.53;;;23.17;48.97
51043;BME280;37078;45.806;9.084;2022-09-25T05:20:52;98751.31;;;23.20;49.16
51043;BME280;37078;45.806;9.084;2022-09-25T05:23:18;98731.31;;;23.16;48.72
51043;BME280;37078;45.806;9.084;2022-09-25T05:25:43;98745.06;;;23.20;48.84
51043;BME280;37078;45.806;9.084;2022-09-25T05:28:14;98738.00;;;23.19;48.86
51043;BME280;37078;45.806;9.084;2022-09-25T05:30:40;98733.06;;;23.21;48.96
51043;BME280;37078;45.806;9.084;2022-09-25T05:33:07;98741.22;;;23.21;48.96
51043;BME280;37078;45.806;9.084;2022-09-25T05:35:33;98741.22;;;23.21;48.77
51043;BME280;37078;45.806;9.084;2022-09-25T05:37:58;98746.16;;;23.19;48.78
51043;BME280;37078;45.806;9.084;2022-09-25T05:40:24;98746.00;;;23.15;48.80
51043;BME280;37078;45.806;9.084;2022-09-25T05:42:50;98756.75;;;23.20;48.82
51043;BME280;37078;45.806;9.084;2022-09-25T05:45:17;98749.22;;;23.17;48.85
51043;BME280;37078;45.806;9.084;2022-09-25T05:47:43;98730.31;;;23.12;48.84
51043;BME280;37078;45.806;9.084;2022-09-25T05:50:11;98738.00;;;23.19;48.53
51043;BME280;37078;45.806;9.084;2022-09-25T05:52:38;98741.56;;;23.19;48.89
51043;BME280;37078;45.806;9.084;2022-09-25T05:55:04;98723.75;;;23.13;48.75
51043;BME280;37078;45.806;9.084;2022-09-25T05:57:34;98726.03;;;23.20;48.77
51043;BME280;37078;45.806;9.084;2022-09-25T06:00:00;98719.28;;;23.17;48.91
51043;BME280;37078;45.806;9.084;2022-09-25T06:02:26;98719.28;;;23.17;48.85
51043;BME280;37078;45.806;9.084;2022-09-25T06:04:51;98717.41;;;22.69;48.87
51043;BME280;37078;45.806;9.084;2022-09-25T06:07:17;98713.66;;;22.39;49.61
51043;BME280;37078;45.806;9.084;2022-09-25T06:09:42;98708.31;;;22.25;49.68
51043;BME280;37078;45.806;9.084;2022-09-25T06:12:07;98726.44;;;22.47;49.51
51043;BME280;37078;45.806;9.084;2022-09-25T06:14:33;98734.66;;;22.65;49.17
51043;BME280;37078;45.806;9.084;2022-09-25T06:17:02;98720.78;;;22.75;48.96
51043;BME280;37078;45.806;9.084;2022-09-25T06:19:27;98719.03;;;22.79;48.93
51043;BME280;37078;45.806;9.084;2022-09-25T06:21:56;98718.44;;;22.82;48.45
51043;BME280;37078;45.806;9.084;2022-09-25T06:24:24;98715.34;;;22.75;48.54
51043;BME280;37078;45.806;9.084;2022-09-25T06:26:50;98719.22;;;22.83;48.41
51043;BME280;37078;45.806;9.084;2022-09-25T06:29:15;98714.25;;;22.85;48.47
51043;BME280;37078;45.806;9.084;2022-09-25T06:31:40;98706.91;;;22.85;48.30
51043;BME280;37078;45.806;9.084;2022-09-25T06:34:08;98704.19;;;22.85;48.44
51043;BME280;37078;45.806;9.084;2022-09-25T06:36:33;98694.91;;;22.86;48.14
51043;BME280;37078;45.806;9.084;2022-09-25T06:38:59;98697.38;;;22.88;48.08
51043;BME280;37078;45.806;9.084;2022-09-25T06:41:24;98701.47;;;22.85;48.04
51043;BME280;37078;45.806;9.084;2022-09-25T06:43:50;98699.41;;;22.82;47.95
51043;BME280;37078;45.806;9.084;2022-09-25T06:46:16;98692.34;;;22.81;48.06
51043;BME280;37078;45.806;9.084;2022-09-25T06:48:43;98707.69;;;22.86;47.90
51043;BME280;37078;45.806;9.084;2022-09-25T06:51:08;98707.69;;;22.86;47.92
51043;BME280;37078;45.806;9.084;2022-09-25T06:53:33;98715.75;;;22.91;48.11
51043;BME280;37078;45.806;9.084;2022-09-25T06:55:59;98713.34;;;22.89;47.97
51043;BME280;37078;45.806;9.084;2022-09-25T06:58:25;98710.81;;;22.93;48.42
51043;BME280;37078;45.806;9.084;2022-09-25T07:00:55;98715.59;;;22.96;48.31
51043;BME280;37078;45.806;9.084;2022-09-25T07:03:21;98719.28;;;23.00;48.39
51043;BME280;37078;45.806;9.084;2022-09-25T07:06:08;98720.06;;;23.00;48.39
51043;BME280;37078;45.806;9.084;2022-09-25T07:08:35;98725.38;;;23.05;48.31
51043;BME280;37078;45.806;9.084;2022-09-25T07:11:00;98705.50;;;22.96;48.47
51043;BME280;37078;45.806;9.084;2022-09-25T07:13:31;98728.41;;;23.04;48.44
51043;BME280;37078;45.806;9.084;2022-09-25T07:16:04;98729.84;;;23.10;48.34
51043;BME280;37078;45.806;9.084;2022-09-25T07:18:31;98738.00;;;23.10;48.35
51043;BME280;37078;45.806;9.084;2022-09-25T07:21:10;98728.41;;;23.04;48.94
51043;BME280;37078;45.806;9.084;2022-09-25T07:23:36;98737.06;;;23.15;49.82
51043;BME280;37078;45.806;9.084;2022-09-25T07:28:34;98738.00;;;23.19;50.38
51043;BME280;37078;45.806;9.084;2022-09-25T07:31:17;98719.13;;;23.05;50.50
51043;BME280;37078;45.806;9.084;2022-09-25T07:33:43;98743.28;;;23.15;50.47
51043;BME280;37078;45.806;9.084;2022-09-25T07:36:09;98756.41;;;23.22;50.37
51043;BME280;37078;45.806;9.084;2022-09-25T07:38:36;98754.50;;;23.22;50.23
51043;BME280;37078;45.806;9.084;2022-09-25T07:41:03;98749.38;;;23.21;49.83
51043;BME280;37078;45.806;9.084;2022-09-25T07:43:31;98742.03;;;23.21;49.58
51043;BME280;37078;45.806;9.084;2022-09-25T07:45:57;98745.56;;;23.30;49.64
51043;BME280;37078;45.806;9.084;2022-09-25T07:48:23;98745.72;;;23.25;49.22
51043;BME280;37078;45.806;9.084;2022-09-25T07:50:48;98746.50;;;23.26;48.92
51043;BME280;37078;45.806;9.084;2022-09-25T07:53:15;98746.50;;;23.26;48.82
51043;BME280;37078;45.806;9.084;2022-09-25T07:55:42;98744.41;;;23.23;48.56
51043;BME280;37078;45.806;9.084;2022-09-25T07:58:08;98752.75;;;23.26;48.33
51043;BME280;37078;45.806;9.084;2022-09-25T08:00:34;98751.94;;;23.26;48.18
51043;BME280;37078;45.806;9.084;2022-09-25T08:02:59;98748.72;;;23.24;48.01
51043;BME280;37078;45.806;9.084;2022-09-25T08:05:25;98732.75;;;23.22;48.10
51043;BME280;37078;45.806;9.084;2022-09-25T08:07:52;98733.38;;;23.28;48.00
51043;BME280;37078;45.806;9.084;2022-09-25T08:10:18;98732.41;;;23.24;47.73
51043;BME280;37078;45.806;9.084;2022-09-25T08:12:43;98732.41;;;23.24;48.00
51043;BME280;37078;45.806;9.084;2022-09-25T08:15:09;98735.63;;;23.26;47.51
51043;BME280;37078;45.806;9.084;2022-09-25T08:17:35;98740.09;;;23.22;48.03
51043;BME280;37078;45.806;9.084;2022-09-25T08:20:01;98742.03;;;23.21;47.66
51043;BME280;37078;45.806;9.084;2022-09-25T08:22:26;98742.34;;;23.20;47.71
51043;BME280;37078;45.806;9.084;2022-09-25T08:24:52;98743.44;;;23.19;47.52
51043;BME280;37078;45.806;9.084;2022-09-25T08:27:17;98753.38;;;23.23;47.67
51043;BME280;37078;45.806;9.084;2022-09-25T08:29:43;98752.72;;;23.18;47.57
51043;BME280;37078;45.806;9.084;2022-09-25T08:32:08;98753.88;;;23.25;47.52
51043;BME280;37078;45.806;9.084;2022-09-25T08:34:33;98751.63;;;23.27;47.57
51043;BME280;37078;45.806;9.084;2022-09-25T08:37:00;98748.44;;;23.25;47.37
51043;BME280;37078;45.806;9.084;2022-09-25T08:39:25;98748.09;;;23.27;47.34
51043;BME280;37078;45.806;9.084;2022-09-25T08:41:53;98739.78;;;23.23;47.11
51043;BME280;37078;45.806;9.084;2022-09-25T08:50:13;98739.78;;;23.32;47.16
51043;BME280;37078;45.806;9.084;2022-09-25T08:52:43;98736.28;;;23.31;47.04
51043;BME280;37078;45.806;9.084;2022-09-25T08:55:22;98734.34;;;23.32;46.96
51043;BME280;37078;45.806;9.084;2022-09-25T08:57:49;98721.72;;;23.27;47.18
51043;BME280;37078;45.806;9.084;2022-09-25T09:00:21;98719.63;;;23.24;47.15
51043;BME280;37078;45.806;9.084;2022-09-25T09:02:53;98715.31;;;23.23;47.11
51043;BME280;37078;45.806;9.084;2022-09-25T09:05:23;98708.41;;;23.17;47.05
51043;BME280;37078;45.806;9.084;2022-09-25T09:08:13;98705.22;;;23.24;47.08
51043;BME280;37078;45.806;9.084;2022-09-25T09:10:49;98695.63;;;23.18;46.95
51043;BME280;37078;45.806;9.084;2022-09-25T09:14:12;98708.44;;;23.26;46.96
51043;BME280;37078;45.806;9.084;2022-09-25T09:16:30;98706.84;;;23.25;46.97
51043;BME280;37078;45.806;9.084;2022-09-25T09:19:00;98699.78;;;23.24;46.77
51043;BME280;37078;45.806;9.084;2022-09-25T09:31:41;98706.19;;;23.28;46.68
51043;BME280;37078;45.806;9.084;2022-09-25T09:36:56;98706.19;;;23.19;46.91
51043;BME280;37078;45.806;9.084;2022-09-25T09:39:37;98717.72;;;23.25;46.82
51043;BME280;37078;45.806;9.084;2022-09-25T09:42:17;98727.78;;;23.24;46.89
51043;BME280;37078;45.806;9.084;2022-09-25T09:45:12;98717.09;;;23.19;46.87
51043;BME280;37078;45.806;9.084;2022-09-25T09:50:20;98727.78;;;23.24;46.82
51043;BME280;37078;45.806;9.084;2022-09-25T09:52:54;98724.25;;;23.24;46.76
51043;BME280;37078;45.806;9.084;2022-09-25T09:58:03;98731.63;;;23.23;46.79
51043;BME280;37078;45.806;9.084;2022-09-25T10:00:31;98722.03;;;23.17;46.65
51043;BME280;37078;45.806;9.084;2022-09-25T10:03:04;98730.81;;;23.23;46.77
51043;BME280;37078;45.806;9.084;2022-09-25T10:05:41;98715.47;;;23.18;47.03
51043;BME280;37078;45.806;9.084;2022-09-25T10:08:08;98710.16;;;23.13;46.77
51043;BME280;37078;45.806;9.084;2022-09-25T10:10:36;98710.00;;;23.18;47.14
51043;BME280;37078;45.806;9.084;2022-09-25T10:13:04;98716.28;;;23.27;47.25
51043;BME280;37078;45.806;9.084;2022-09-25T10:18:13;98713.72;;;23.31;47.16
51043;BME280;37078;45.806;9.084;2022-09-25T10:20:43;98713.41;;;23.33;47.23
51043;BME280;37078;45.806;9.084;2022-09-25T10:23:39;98708.59;;;23.29;47.14
51043;BME280;37078;45.806;9.084;2022-09-25T10:26:29;98723.31;;;23.37;46.88
51043;BME280;37078;45.806;9.084;2022-09-25T10:29:03;98718.34;;;23.39;47.02
51043;BME280;37078;45.806;9.084;2022-09-25T10:31:34;98717.38;;;23.44;47.05
51043;BME280;37078;45.806;9.084;2022-09-25T10:36:39;98708.91;;;23.45;46.88
51043;BME280;37078;45.806;9.084;2022-09-25T10:39:30;98701.69;;;23.41;46.81
51043;BME280;37078;45.806;9.084;2022-09-25T10:41:56;98704.59;;;23.44;46.93
51043;BME280;37078;45.806;9.084;2022-09-25T10:44:29;98708.28;;;23.48;46.83
51043;BME280;37078;45.806;9.084;2022-09-25T10:50:10;98686.19;;;23.50;46.60
51043;BME280;37078;45.806;9.084;2022-09-25T10:52:49;98696.28;;;23.58;46.37
51043;BME280;37078;45.806;9.084;2022-09-25T10:55:28;98702.34;;;23.55;46.56
51043;BME280;37078;45.806;9.084;2022-09-25T10:58:18;98687.47;;;23.52;46.51
51043;BME280;37078;45.806;9.084;2022-09-25T11:03:17;98695.94;;;23.60;46.41
51043;BME280;37078;45.806;9.084;2022-09-25T11:05:51;98699.13;;;23.62;46.29
51043;BME280;37078;45.806;9.084;2022-09-25T11:08:19;98695.94;;;23.60;46.64
51043;BME280;37078;45.806;9.084;2022-09-25T11:10:53;98696.75;;;23.60;46.58
51043;BME280;37078;45.806;9.084;2022-09-25T11:13:22;98683.94;;;23.61;46.34
51043;BME280;37078;45.806;9.084;2022-09-25T11:15:57;98675.63;;;23.57;46.36
51043;BME280;37078;45.806;9.084;2022-09-25T11:18:43;98679.81;;;23.63;46.16
51043;BME280;37078;45.806;9.084;2022-09-25T11:21:20;98680.09;;;23.62;46.21
51043;BME280;37078;45.806;9.084;2022-09-25T11:27:20;98678.34;;;23.66;46.18
51043;BME280;37078;45.806;9.084;2022-09-25T11:30:03;98663.16;;;23.65;46.21
51043;BME280;37078;45.806;9.084;2022-09-25T11:33:00;98659.44;;;23.61;46.26
51043;BME280;37078;45.806;9.084;2022-09-25T11:41:38;98648.41;;;23.74;46.50
51043;BME280;37078;45.806;9.084;2022-09-25T11:44:26;98642.31;;;23.77;46.49
51043;BME280;37078;45.806;9.084;2022-09-25T11:47:02;98644.06;;;23.82;46.34
51043;BME280;37078;45.806;9.084;2022-09-25T11:49:34;98630.94;;;23.84;46.25
51043;BME280;37078;45.806;9.084;2022-09-25T11:52:28;98626.75;;;23.87;46.02
51043;BME280;37078;45.806;9.084;2022-09-25T12:00:20;98626.59;;;23.92;46.10
51043;BME280;37078;45.806;9.084;2022-09-25T12:05:57;98625.94;;;23.95;46.16
51043;BME280;37078;45.806;9.084;2022-09-25T12:14:38;98615.66;;;24.00;46.00
51043;BME280;37078;45.806;9.084;2022-09-25T12:17:37;98613.88;;;24.04;45.75
51043;BME280;37078;45.806;9.084;2022-09-25T12:25:13;98591.88;;;24.18;45.55
51043;BME280;37078;45.806;9.084;2022-09-25T12:28:04;98590.72;;;24.28;45.24
51043;BME280;37078;45.806;9.084;2022-09-25T12:30:54;98590.38;;;24.38;45.17
51043;BME280;37078;45.806;9.084;2022-09-25T12:33:36;98595.84;;;24.21;45.63
51043;BME280;37078;45.806;9.084;2022-09-25T12:36:19;98593.19;;;24.12;45.59
51043;BME280;37078;45.806;9.084;2022-09-25T12:38:51;98594.00;;;24.13;45.69
51043;BME280;37078;45.806;9.084;2022-09-25T12:44:05;98565.53;;;24.01;45.86
51043;BME280;37078;45.806;9.084;2022-09-25T12:46:49;98583.28;;;24.07;45.86
51043;BME280;37078;45.806;9.084;2022-09-25T12:49:27;98581.81;;;24.10;45.73
51043;BME280;37078;45.806;9.084;2022-09-25T12:52:08;98578.97;;;24.06;45.73
51043;BME280;37078;45.806;9.084;2022-09-25T12:57:25;98583.75;;;24.09;45.42
51043;BME280;37078;45.806;9.084;2022-09-25T12:59:53;98579.09;;;24.10;45.40
51043;BME280;37078;45.806;9.084;2022-09-25T13:02:39;98573.03;;;24.04;45.36
51043;BME280;37078;45.806;9.084;2022-09-25T13:05:27;98583.66;;;23.97;45.46
51043;BME280;37078;45.806;9.084;2022-09-25T13:08:26;98582.22;;;23.91;45.71
51043;BME280;37078;45.806;9.084;2022-09-25T13:11:02;98587.69;;;23.91;45.68
51043;BME280;37078;45.806;9.084;2022-09-25T13:13:38;98586.22;;;23.94;45.56
51043;BME280;37078;45.806;9.084;2022-09-25T13:16:07;98568.13;;;23.89;45.47
51043;BME280;37078;45.806;9.084;2022-09-25T13:18:34;98573.72;;;23.93;45.50
51043;BME280;37078;45.806;9.084;2022-09-25T13:21:31;98581.19;;;24.04;45.33
51043;BME280;37078;45.806;9.084;2022-09-25T13:23:59;98573.22;;;23.99;45.11
51043;BME280;37078;45.806;9.084;2022-09-25T13:26:25;98570.31;;;24.04;45.07
51043;BME280;37078;45.806;9.084;2022-09-25T13:29:01;98583.00;;;24.30;44.69
51043;BME280;37078;45.806;9.084;2022-09-25T13:31:30;98570.56;;;24.20;44.58
51043;BME280;37078;45.806;9.084;2022-09-25T13:38:55;98566.94;;;24.07;45.17
51043;BME280;37078;45.806;9.084;2022-09-25T13:41:54;98571.09;;;24.05;45.04
51043;BME280;37078;45.806;9.084;2022-09-25T13:49:52;98564.94;;;23.96;45.54
51043;BME280;37078;45.806;9.084;2022-09-25T14:03:00;98550.84;;;24.23;44.65
51043;BME280;37078;45.806;9.084;2022-09-25T14:05:32;98548.69;;;24.38;44.10
51043;BME280;37078;45.806;9.084;2022-09-25T14:08:09;98547.59;;;24.59;44.05
51043;BME280;37078;45.806;9.084;2022-09-25T14:10:36;98538.81;;;24.24;44.52
51043;BME280;37078;45.806;9.084;2022-09-25T14:13:11;98538.56;;;24.17;44.79
51043;BME280;37078;45.806;9.084;2022-09-25T14:15:38;98538.13;;;24.06;44.94
51043;BME280;37078;45.806;9.084;2022-09-25T14:18:08;98547.47;;;23.97;45.11
51043;BME280;37078;45.806;9.084;2022-09-25T14:20:41;98527.66;;;23.88;45.25
51043;BME280;37078;45.806;9.084;2022-09-25T14:25:38;98524.88;;;23.96;45.15
51043;BME280;37078;45.806;9.084;2022-09-25T14:28:44;98535.41;;;24.57;43.96
51043;BME280;37078;45.806;9.084;2022-09-25T14:40:00;98529.34;;;24.01;44.84
51043;BME280;37078;45.806;9.084;2022-09-25T14:47:43;98532.63;;;23.86;45.24
51043;BME280;37078;45.806;9.084;2022-09-25T14:50:21;98527.81;;;23.82;45.34
51043;BME280;37078;45.806;9.084;2022-09-25T14:52:50;98520.34;;;23.79;45.20
51043;BME280;37078;45.806;9.084;2022-09-25T14:55:17;98524.81;;;23.75;45.38
51043;BME280;37078;45.806;9.084;2022-09-25T14:57:46;98527.22;;;23.77;45.72
51043;BME280;37078;45.806;9.084;2022-09-25T15:00:16;98520.00;;;23.81;45.81
51043;BME280;37078;45.806;9.084;2022-09-25T15:02:45;98517.09;;;23.86;45.89
51043;BME280;37078;45.806;9.084;2022-09-25T15:05:28;98515.66;;;24.09;45.24
51043;BME280;37078;45.806;9.084;2022-09-25T15:07:55;98525.94;;;24.96;43.50
51043;BME280;37078;45.806;9.084;2022-09-25T15:10:24;98526.88;;;25.00;43.54
51043;BME280;37078;45.806;9.084;2022-09-25T15:12:50;98509.06;;;24.49;44.39
51043;BME280;37078;45.806;9.084;2022-09-25T15:15:16;98513.31;;;24.29;44.72
51043;BME280;37078;45.806;9.084;2022-09-25T15:17:56;98508.41;;;24.22;44.65
51043;BME280;37078;45.806;9.084;2022-09-25T15:20:26;98497.72;;;24.59;44.28
51043;BME280;37078;45.806;9.084;2022-09-25T15:25:33;98489.69;;;25.29;42.90
51043;BME280;37078;45.806;9.084;2022-09-25T15:27:59;98492.81;;;25.64;42.51
51043;BME280;37078;45.806;9.084;2022-09-25T15:30:26;98485.34;;;25.16;43.32
51043;BME280;37078;45.806;9.084;2022-09-25T15:32:53;98493.69;;;24.65;44.59
51043;BME280;37078;45.806;9.084;2022-09-25T15:35:23;98496.13;;;24.37;44.98
51043;BME280;37078;45.806;9.084;2022-09-25T15:38:09;98489.00;;;24.24;45.26